American Canyon, California
Current Conditions -  °F | °C
As of 2:54 PM on Monday 22 Dec 2014 (Local Time) from KAPC Reporting Station
Clear Clear  
Wind Chill: 62°   Ceiling: Unl
Heat Index: 62°   Visibility: 10mi
Dew Point: 57°   Wind: 5mph
Humidity: 84%   Direction: 280°W
Pressure: 30.19"   Gusts: NA
Location:  38.17°N, 122.25°W
Report Text: KAPC 222254Z 28004KT 10SM CLR 17/14 A3019 RMK AO2 SLP214 T01670139
Loading
Personal Weather Stations






























Interactive Weather Map New forecast layout! Learn more

10-Day Weather Forecast

Advertisements
Track Severe Weather on mobile